createdAt,value
2022-12-01T00:00:38.602Z,98214.28
2022-12-01T00:05:39.855Z,98204.63
2022-12-01T00:10:41.064Z,98206.47
2022-12-01T00:15:42.313Z,98206.41
2022-12-01T00:20:43.590Z,98201.38
2022-12-01T00:25:44.889Z,98191.22
2022-12-01T00:30:46.231Z,98196.28
2022-12-01T00:35:47.461Z,98201.25
2022-12-01T00:40:48.754Z,98196.91
2022-12-01T00:45:50.130Z,98191.78
2022-12-01T00:50:51.409Z,98207.28
2022-12-01T00:55:54.255Z,98208.16
2022-12-01T01:00:55.504Z,98199.75
2022-12-01T01:05:56.824Z,98203.25
2022-12-01T01:10:58.061Z,98201.56
2022-12-01T01:15:59.800Z,98208.38
2022-12-01T01:21:01.044Z,98212.69
2022-12-01T01:26:02.387Z,98210.94
2022-12-01T01:31:03.649Z,98206.66
2022-12-01T01:36:04.953Z,98205.13
2022-12-01T01:41:06.225Z,98211.13
2022-12-01T01:46:07.476Z,98213.69
2022-12-01T01:51:09.087Z,98219.66
2022-12-01T01:56:10.390Z,98211.94
2022-12-01T02:01:11.681Z,98213.66
2022-12-01T02:06:13.696Z,98203.47
2022-12-01T02:11:14.904Z,98216.25
2022-12-01T02:16:16.135Z,98216.22
2022-12-01T02:21:17.488Z,98216.13
2022-12-01T02:26:18.707Z,98216.13
2022-12-01T02:31:20.021Z,98205.03
2022-12-01T02:36:21.303Z,98199.88
2022-12-01T02:41:23.110Z,98198.16
2022-12-01T02:46:24.555Z,98193.06
2022-12-01T02:51:25.824Z,98188.78
2022-12-01T02:56:27.208Z,98185.31
2022-12-01T03:01:28.547Z,98185.44
2022-12-01T03:06:29.861Z,98176.97
2022-12-01T03:11:31.126Z,98179.63
2022-12-01T03:16:32.522Z,98196.59
2022-12-01T03:21:33.864Z,98196.59
2022-12-01T03:26:35.609Z,98185.56
2022-12-01T03:31:37.731Z,98179.56
2022-12-01T03:36:39.118Z,98179.63
2022-12-01T03:41:40.364Z,98182.13
2022-12-01T03:46:42.452Z,98188.91
2022-12-01T03:51:43.826Z,98193.97
2022-12-01T03:56:45.085Z,98200.75
2022-12-01T04:01:46.422Z,98192.16
2022-12-01T04:06:47.793Z,98192.16
2022-12-01T04:12:07.720Z,98195.63
2022-12-01T04:17:08.926Z,98183.63
2022-12-01T04:22:10.212Z,98185.38
2022-12-01T04:27:11.482Z,98183.66
2022-12-01T04:32:13.446Z,98189.72
2022-12-01T04:37:14.820Z,98192.31
2022-12-01T04:42:16.030Z,98187.13
2022-12-01T04:47:17.268Z,98191.38
2022-12-01T04:52:18.483Z,98187.19
2022-12-01T04:57:19.833Z,98191.34
2022-12-01T05:02:21.061Z,98192.25
2022-12-01T05:07:22.463Z,98186.22
2022-12-01T05:12:23.802Z,98187.88
2022-12-01T05:17:25.025Z,98181.06
2022-12-01T05:22:42.825Z,98185.34
2022-12-01T05:27:47.534Z,98181.88
2022-12-01T05:32:48.760Z,98177.66
2022-12-01T05:37:49.962Z,98181.00
2022-12-01T05:42:51.179Z,98170.94
2022-12-01T05:47:52.463Z,98173.44
2022-12-01T05:52:53.712Z,98168.34
2022-12-01T05:57:55.335Z,98183.59
2022-12-01T06:02:56.590Z,98182.91
2022-12-01T06:07:57.983Z,98177.66
2022-12-01T06:12:59.407Z,98177.69
2022-12-01T06:18:00.630Z,98179.31
2022-12-01T06:23:01.904Z,98178.56
2022-12-01T06:28:03.156Z,98177.69
2022-12-01T06:33:04.389Z,98187.97
2022-12-01T06:38:05.607Z,98191.34
2022-12-01T06:43:06.856Z,98195.66
2022-12-01T06:48:08.493Z,98199.16
2022-12-01T06:53:10.726Z,98201.66
2022-12-01T06:58:11.938Z,98186.19
2022-12-01T07:03:13.340Z,98193.00
2022-12-01T07:08:14.658Z,98193.84
2022-12-01T07:13:15.949Z,98208.44
2022-12-01T07:18:17.173Z,98200.75
2022-12-01T07:23:18.384Z,98210.06
2022-12-01T07:28:19.653Z,98210.84
2022-12-01T07:33:20.924Z,98203.09
2022-12-01T07:38:22.530Z,98212.50
2022-12-01T07:43:23.785Z,98206.66
2022-12-01T07:48:24.987Z,98210.84
2022-12-01T07:53:26.253Z,98205.06
2022-12-01T07:58:27.572Z,98210.22
2022-12-01T08:03:28.966Z,98220.31
2022-12-01T08:08:30.434Z,98218.47
2022-12-01T08:13:31.739Z,98215.19
2022-12-01T08:18:32.981Z,98223.84
2022-12-01T08:23:34.289Z,98222.84
2022-12-01T08:28:36.036Z,98222.75
2022-12-01T08:33:37.252Z,98228.88
2022-12-01T08:38:38.498Z,98238.09
2022-12-01T08:43:57.148Z,98232.09
2022-12-01T08:48:59.996Z,98231.88
2022-12-01T08:54:01.393Z,98231.91
2022-12-01T08:59:03.977Z,98231.91
2022-12-01T09:04:06.005Z,98236.19
2022-12-01T09:09:07.780Z,98243.91
2022-12-01T09:14:09.018Z,98237.75
2022-12-01T09:19:12.244Z,98241.94
2022-12-01T09:24:14.591Z,98242.69
2022-12-01T09:29:15.882Z,98239.03
2022-12-01T09:34:17.128Z,98237.88
2022-12-01T09:39:18.405Z,98219.16
2022-12-01T09:44:21.866Z,98217.91
2022-12-01T09:49:23.102Z,98211.88
2022-12-01T09:54:24.336Z,98200.66
2022-12-01T09:59:25.594Z,98194.59
2022-12-01T10:04:26.858Z,98198.56
2022-12-01T10:09:28.174Z,98190.75
2022-12-01T10:14:29.406Z,98176.00
2022-12-01T10:19:31.277Z,98170.50
2022-12-01T10:24:32.508Z,98168.81
2022-12-01T10:29:33.752Z,98161.59
2022-12-01T10:34:35.106Z,98154.09
2022-12-01T10:39:36.339Z,98138.28
2022-12-01T10:44:37.778Z,98136.69
2022-12-01T10:49:39.106Z,98131.59
2022-12-01T10:54:40.388Z,98125.91
2022-12-01T10:59:41.738Z,98126.81
2022-12-01T11:04:45.505Z,98120.94
2022-12-01T11:09:47.522Z,98120.13
2022-12-01T11:14:49.441Z,98109.66
2022-12-01T11:19:50.877Z,98118.16
2022-12-01T11:24:52.325Z,98108.28
2022-12-01T11:29:53.645Z,98108.88
2022-12-01T11:34:55.018Z,98099.97
2022-12-01T11:39:56.282Z,98102.72
2022-12-01T11:44:57.575Z,98101.47
2022-12-01T11:49:58.963Z,98102.41
2022-12-01T11:55:01.497Z,98090.84
2022-12-01T12:00:04.516Z,98103.53
2022-12-01T12:05:05.809Z,98103.72
2022-12-01T12:10:07.309Z,98116.13
2022-12-01T12:15:08.579Z,98116.81
2022-12-01T12:20:10.218Z,98108.78
2022-12-01T12:25:11.745Z,98105.38
2022-12-01T12:30:13.012Z,98085.09
2022-12-01T12:35:16.280Z,98085.88
2022-12-01T12:40:17.581Z,98079.56
2022-12-01T12:45:18.842Z,98076.28
2022-12-01T12:50:20.046Z,98066.91
2022-12-01T12:55:21.292Z,98071.81
2022-12-01T13:00:22.501Z,98075.16
2022-12-01T13:05:23.748Z,98073.19
2022-12-01T13:10:25.029Z,98072.19
2022-12-01T13:15:26.352Z,98063.25
2022-12-01T13:20:27.784Z,98064.72
2022-12-01T13:25:29.098Z,98064.44
2022-12-01T13:30:30.459Z,98057.72
2022-12-01T13:35:31.739Z,98057.69
2022-12-01T13:40:32.992Z,98060.38
2022-12-01T13:45:34.235Z,98058.50
2022-12-01T13:50:35.563Z,98057.34
2022-12-01T13:55:36.799Z,98049.03
2022-12-01T14:00:38.101Z,98052.69
2022-12-01T14:05:39.418Z,98049.81
2022-12-01T14:10:40.707Z,98042.25
2022-12-01T14:15:42.903Z,98037.94
2022-12-01T14:20:44.895Z,98032.38
2022-12-01T14:25:46.130Z,98030.41
2022-12-01T14:30:47.420Z,98029.81
2022-12-01T14:35:48.692Z,98021.41
2022-12-01T14:40:50.008Z,98023.72
2022-12-01T14:45:51.278Z,98023.91
2022-12-01T14:50:52.502Z,98023.19
2022-12-01T14:55:53.802Z,98017.22
2022-12-01T15:00:55.076Z,98023.66
2022-12-01T15:05:56.343Z,98020.69
2022-12-01T15:10:57.624Z,98034.16
2022-12-01T15:15:58.941Z,98034.47
2022-12-01T15:21:00.195Z,98045.72
2022-12-01T15:26:01.480Z,98034.06
2022-12-01T15:31:02.739Z,98031.50
2022-12-01T15:36:04.000Z,98036.38
2022-12-01T15:46:26.418Z,98027.94
2022-12-01T15:51:27.761Z,98025.78
2022-12-01T15:56:29.100Z,98021.00
2022-12-01T16:01:30.482Z,98016.53
2022-12-01T16:06:31.819Z,98010.69
2022-12-01T16:11:33.184Z,98006.56
2022-12-01T16:16:34.688Z,98006.84
2022-12-01T16:21:36.090Z,98009.09
2022-12-01T16:26:38.238Z,98016.69
2022-12-01T16:31:58.635Z,98020.59
2022-12-01T16:37:00.680Z,98024.50
2022-12-01T16:42:02.090Z,98029.34
2022-12-01T16:47:03.491Z,98037.22
2022-12-01T16:52:15.996Z,98028.88
2022-12-01T16:57:26.040Z,98027.72
2022-12-01T17:02:27.335Z,98035.84
2022-12-01T17:07:37.621Z,98037.13
2022-12-01T17:12:39.007Z,98040.34
2022-12-01T17:17:40.265Z,98042.72
2022-12-01T17:22:41.477Z,98053.09
2022-12-01T17:27:43.904Z,98055.28
2022-12-01T17:32:46.608Z,98047.06
2022-12-01T17:37:47.872Z,98049.59
2022-12-01T17:42:51.051Z,98056.66
2022-12-01T17:47:52.533Z,98061.47
2022-12-01T17:52:53.782Z,98075.13
2022-12-01T17:57:55.086Z,98069.34
2022-12-01T18:02:56.387Z,98079.97
2022-12-01T18:07:57.770Z,98080.16
2022-12-01T18:12:59.092Z,98075.19
2022-12-01T18:18:00.359Z,98083.28
2022-12-01T18:23:01.633Z,98090.38
2022-12-01T18:28:03.028Z,98095.13
2022-12-01T18:33:04.370Z,98091.59
2022-12-01T18:38:05.669Z,98089.72
2022-12-01T18:43:06.954Z,98090.75
2022-12-01T18:48:08.177Z,98085.47
2022-12-01T18:53:09.408Z,98087.16
2022-12-01T18:58:10.656Z,98083.72
2022-12-01T19:03:12.008Z,98082.34
2022-12-01T19:08:13.305Z,98078.94
2022-12-01T19:13:14.645Z,98082.13
2022-12-01T19:18:15.861Z,98079.44
2022-12-01T19:23:17.124Z,98087.34
2022-12-01T19:28:18.404Z,98076.97
2022-12-01T19:33:19.806Z,98068.94
2022-12-01T19:38:21.054Z,98073.72
2022-12-01T19:43:22.429Z,98075.91
2022-12-01T19:48:23.690Z,98073.00
2022-12-01T19:53:27.914Z,98074.69
2022-12-01T19:58:33.330Z,98066.59
2022-12-01T20:03:34.585Z,98067.81
2022-12-01T20:08:36.345Z,98068.81
2022-12-01T20:13:37.745Z,98064.16
2022-12-01T20:18:39.036Z,98081.41
2022-12-01T20:23:40.282Z,98072.72
2022-12-01T20:28:41.533Z,98082.59
2022-12-01T20:33:42.732Z,98088.75
2022-12-01T20:38:43.994Z,98088.16
2022-12-01T20:43:45.261Z,98089.25
2022-12-01T20:48:46.503Z,98087.91
2022-12-01T20:54:12.374Z,98092.53
2022-12-01T20:59:09.005Z,98091.63
2022-12-01T21:04:10.251Z,98092.94
2022-12-01T21:09:13.022Z,98090.44
2022-12-01T21:14:14.297Z,98087.69
2022-12-01T21:19:15.861Z,98100.84
2022-12-01T21:24:18.611Z,98112.81
2022-12-01T21:29:19.949Z,98109.66
2022-12-01T21:34:21.954Z,98114.91
2022-12-01T21:39:27.894Z,98110.50
2022-12-01T21:44:34.885Z,98118.22
2022-12-01T21:49:36.286Z,98111.88
2022-12-01T21:54:37.537Z,98120.25
2022-12-01T21:59:38.790Z,98128.09
2022-12-01T22:04:40.033Z,98130.94
2022-12-01T22:09:41.278Z,98123.50
2022-12-01T22:14:42.594Z,98122.44
2022-12-01T22:19:44.825Z,98118.34
2022-12-01T22:24:46.230Z,98131.44
2022-12-01T22:29:47.598Z,98138.84
2022-12-01T22:34:49.340Z,98124.72
2022-12-01T22:39:50.835Z,98120.56
2022-12-01T22:44:52.361Z,98116.69
2022-12-01T22:49:53.705Z,98115.25
2022-12-01T22:54:54.922Z,98112.69
2022-12-01T22:59:56.226Z,98108.06
2022-12-01T23:04:57.592Z,98099.34
2022-12-01T23:09:58.853Z,98100.88
2022-12-01T23:15:00.183Z,98111.75
2022-12-01T23:20:01.499Z,98106.06
2022-12-01T23:25:02.818Z,98093.53
2022-12-01T23:30:04.093Z,98094.44
2022-12-01T23:35:05.381Z,98078.97
2022-12-01T23:40:06.677Z,98070.84
2022-12-01T23:45:07.927Z,98067.16
2022-12-01T23:50:09.153Z,98057.78
2022-12-01T23:55:10.416Z,98050.72
